sensor_id;sensor_type;location;lat;lon;timestamp;P1;durP1;ratioP1;P2;durP2;ratioP2
11982;SDS011;72623;51.184;7.176;2023-09-18T00:00:03;5.77;;;3.67;;
11982;SDS011;72623;51.184;7.176;2023-09-18T00:02:33;7.60;;;3.83;;
11982;SDS011;72623;51.184;7.176;2023-09-18T00:05:00;10.23;;;3.77;;
11982;SDS011;72623;51.184;7.176;2023-09-18T00:07:26;5.23;;;3.90;;
11982;SDS011;72623;51.184;7.176;2023-09-18T00:09:53;8.97;;;3.23;;
11982;SDS011;72623;51.184;7.176;2023-09-18T00:12:20;7.57;;;4.10;;
11982;SDS011;72623;51.184;7.176;2023-09-18T00:14:50;6.57;;;3.57;;
11982;SDS011;72623;51.184;7.176;2023-09-18T00:17:17;7.50;;;3.70;;
11982;SDS011;72623;51.184;7.176;2023-09-18T00:19:44;5.77;;;3.63;;
11982;SDS011;72623;51.184;7.176;2023-09-18T00:22:10;6.37;;;3.90;;
11982;SDS011;72623;51.184;7.176;2023-09-18T00:24:37;6.13;;;3.70;;
11982;SDS011;72623;51.184;7.176;2023-09-18T00:27:04;5.93;;;3.47;;
11982;SDS011;72623;51.184;7.176;2023-09-18T00:29:31;7.03;;;3.47;;
11982;SDS011;72623;51.184;7.176;2023-09-18T00:31:57;7.10;;;3.13;;
11982;SDS011;72623;51.184;7.176;2023-09-18T00:34:24;11.00;;;3.87;;
11982;SDS011;72623;51.184;7.176;2023-09-18T00:36:51;7.60;;;3.70;;
11982;SDS011;72623;51.184;7.176;2023-09-18T00:39:17;6.97;;;3.47;;
11982;SDS011;72623;51.184;7.176;2023-09-18T00:41:44;7.47;;;3.83;;
11982;SDS011;72623;51.184;7.176;2023-09-18T00:44:14;11.57;;;3.53;;
11982;SDS011;72623;51.184;7.176;2023-09-18T00:46:41;9.43;;;4.17;;
11982;SDS011;72623;51.184;7.176;2023-09-18T00:49:07;8.03;;;3.73;;
11982;SDS011;72623;51.184;7.176;2023-09-18T00:51:34;5.33;;;3.13;;
11982;SDS011;72623;51.184;7.176;2023-09-18T00:54:01;8.97;;;3.43;;
11982;SDS011;72623;51.184;7.176;2023-09-18T00:56:28;7.90;;;3.70;;
11982;SDS011;72623;51.184;7.176;2023-09-18T00:58:54;7.57;;;3.83;;
11982;SDS011;72623;51.184;7.176;2023-09-18T01:01:21;8.53;;;3.43;;
11982;SDS011;72623;51.184;7.176;2023-09-18T01:03:49;7.47;;;3.47;;
11982;SDS011;72623;51.184;7.176;2023-09-18T01:06:18;6.30;;;3.17;;
11982;SDS011;72623;51.184;7.176;2023-09-18T01:08:45;6.47;;;3.63;;
11982;SDS011;72623;51.184;7.176;2023-09-18T01:16:50;6.20;;;3.57;;
11982;SDS011;72623;51.184;7.176;2023-09-18T01:19:42;6.57;;;2.87;;
11982;SDS011;72623;51.184;7.176;2023-09-18T01:22:09;5.53;;;3.03;;
11982;SDS011;72623;51.184;7.176;2023-09-18T01:24:37;6.30;;;3.10;;
11982;SDS011;72623;51.184;7.176;2023-09-18T01:27:07;4.50;;;2.73;;
11982;SDS011;72623;51.184;7.176;2023-09-18T01:29:35;5.67;;;3.07;;
11982;SDS011;72623;51.184;7.176;2023-09-18T01:32:02;8.60;;;3.63;;
11982;SDS011;72623;51.184;7.176;2023-09-18T01:34:33;5.53;;;3.00;;
11982;SDS011;72623;51.184;7.176;2023-09-18T01:37:04;9.70;;;3.30;;
11982;SDS011;72623;51.184;7.176;2023-09-18T01:39:33;6.37;;;3.03;;
11982;SDS011;72623;51.184;7.176;2023-09-18T01:42:02;7.93;;;2.80;;
11982;SDS011;72623;51.184;7.176;2023-09-18T01:44:31;6.80;;;3.20;;
11982;SDS011;72623;51.184;7.176;2023-09-18T01:47:00;4.07;;;2.90;;
11982;SDS011;72623;51.184;7.176;2023-09-18T01:49:29;7.63;;;3.47;;
11982;SDS011;72623;51.184;7.176;2023-09-18T01:51:58;5.13;;;2.93;;
11982;SDS011;72623;51.184;7.176;2023-09-18T01:54:25;7.23;;;3.77;;
11982;SDS011;72623;51.184;7.176;2023-09-18T01:56:52;5.87;;;2.90;;
11982;SDS011;72623;51.184;7.176;2023-09-18T01:59:19;7.23;;;3.17;;
11982;SDS011;72623;51.184;7.176;2023-09-18T02:01:46;8.77;;;3.13;;
11982;SDS011;72623;51.184;7.176;2023-09-18T02:04:13;3.43;;;2.80;;
11982;SDS011;72623;51.184;7.176;2023-09-18T02:06:40;4.63;;;3.10;;
11982;SDS011;72623;51.184;7.176;2023-09-18T02:09:07;4.33;;;3.77;;
11982;SDS011;72623;51.184;7.176;2023-09-18T02:11:34;4.30;;;2.87;;
11982;SDS011;72623;51.184;7.176;2023-09-18T02:14:05;4.53;;;2.97;;
11982;SDS011;72623;51.184;7.176;2023-09-18T02:16:36;5.47;;;3.10;;
11982;SDS011;72623;51.184;7.176;2023-09-18T02:19:06;5.87;;;2.97;;
11982;SDS011;72623;51.184;7.176;2023-09-18T02:21:33;7.07;;;2.90;;
11982;SDS011;72623;51.184;7.176;2023-09-18T02:24:00;8.47;;;2.90;;
11982;SDS011;72623;51.184;7.176;2023-09-18T02:26:27;4.87;;;2.80;;
11982;SDS011;72623;51.184;7.176;2023-09-18T02:28:55;6.47;;;3.03;;
11982;SDS011;72623;51.184;7.176;2023-09-18T02:31:24;5.60;;;2.80;;
11982;SDS011;72623;51.184;7.176;2023-09-18T02:33:50;6.30;;;2.63;;
11982;SDS011;72623;51.184;7.176;2023-09-18T02:36:17;3.77;;;2.90;;
11982;SDS011;72623;51.184;7.176;2023-09-18T02:38:43;4.43;;;2.90;;
11982;SDS011;72623;51.184;7.176;2023-09-18T02:41:10;6.90;;;2.70;;
11982;SDS011;72623;51.184;7.176;2023-09-18T02:43:37;8.37;;;3.00;;
11982;SDS011;72623;51.184;7.176;2023-09-18T02:46:04;6.23;;;3.27;;
11982;SDS011;72623;51.184;7.176;2023-09-18T02:48:32;9.20;;;3.10;;
11982;SDS011;72623;51.184;7.176;2023-09-18T02:51:01;7.97;;;2.83;;
11982;SDS011;72623;51.184;7.176;2023-09-18T02:53:29;4.50;;;2.60;;
11982;SDS011;72623;51.184;7.176;2023-09-18T02:55:56;5.17;;;2.97;;
11982;SDS011;72623;51.184;7.176;2023-09-18T02:58:24;6.23;;;2.80;;
11982;SDS011;72623;51.184;7.176;2023-09-18T03:00:53;4.90;;;2.80;;
11982;SDS011;72623;51.184;7.176;2023-09-18T03:03:21;6.77;;;3.13;;
11982;SDS011;72623;51.184;7.176;2023-09-18T03:05:48;6.23;;;3.20;;
11982;SDS011;72623;51.184;7.176;2023-09-18T03:08:15;3.67;;;2.50;;
11982;SDS011;72623;51.184;7.176;2023-09-18T03:10:42;5.63;;;2.93;;
11982;SDS011;72623;51.184;7.176;2023-09-18T03:13:09;6.60;;;3.13;;
11982;SDS011;72623;51.184;7.176;2023-09-18T03:15:37;6.20;;;3.03;;
11982;SDS011;72623;51.184;7.176;2023-09-18T03:18:05;7.03;;;3.27;;
11982;SDS011;72623;51.184;7.176;2023-09-18T03:20:32;4.97;;;2.90;;
11982;SDS011;72623;51.184;7.176;2023-09-18T03:23:00;6.53;;;3.00;;
11982;SDS011;72623;51.184;7.176;2023-09-18T03:25:28;5.07;;;3.03;;
11982;SDS011;72623;51.184;7.176;2023-09-18T03:27:55;7.80;;;2.67;;
11982;SDS011;72623;51.184;7.176;2023-09-18T03:30:23;11.57;;;3.50;;
11982;SDS011;72623;51.184;7.176;2023-09-18T03:32:50;3.60;;;2.70;;
11982;SDS011;72623;51.184;7.176;2023-09-18T03:35:18;7.50;;;3.00;;
11982;SDS011;72623;51.184;7.176;2023-09-18T03:37:45;6.40;;;3.30;;
11982;SDS011;72623;51.184;7.176;2023-09-18T03:40:12;6.03;;;2.90;;
11982;SDS011;72623;51.184;7.176;2023-09-18T03:42:40;5.67;;;3.27;;
11982;SDS011;72623;51.184;7.176;2023-09-18T03:45:07;9.77;;;3.20;;
11982;SDS011;72623;51.184;7.176;2023-09-18T03:47:35;8.73;;;3.77;;
11982;SDS011;72623;51.184;7.176;2023-09-18T03:50:02;8.10;;;4.30;;
11982;SDS011;72623;51.184;7.176;2023-09-18T03:52:29;5.90;;;3.40;;
11982;SDS011;72623;51.184;7.176;2023-09-18T03:54:56;10.00;;;3.37;;
11982;SDS011;72623;51.184;7.176;2023-09-18T03:57:23;6.63;;;3.37;;
11982;SDS011;72623;51.184;7.176;2023-09-18T03:59:50;6.57;;;3.27;;
11982;SDS011;72623;51.184;7.176;2023-09-18T04:02:17;8.50;;;3.03;;
11982;SDS011;72623;51.184;7.176;2023-09-18T04:04:43;6.57;;;3.97;;
11982;SDS011;72623;51.184;7.176;2023-09-18T04:07:10;4.23;;;2.90;;
11982;SDS011;72623;51.184;7.176;2023-09-18T04:09:41;10.53;;;3.20;;
11982;SDS011;72623;51.184;7.176;2023-09-18T04:12:08;5.67;;;3.37;;
11982;SDS011;72623;51.184;7.176;2023-09-18T04:14:35;12.43;;;3.37;;
11982;SDS011;72623;51.184;7.176;2023-09-18T04:17:01;6.87;;;3.50;;
11982;SDS011;72623;51.184;7.176;2023-09-18T04:19:29;7.17;;;3.53;;
11982;SDS011;72623;51.184;7.176;2023-09-18T04:21:56;5.40;;;2.87;;
11982;SDS011;72623;51.184;7.176;2023-09-18T04:24:22;6.57;;;3.00;;
11982;SDS011;72623;51.184;7.176;2023-09-18T04:26:49;5.33;;;3.60;;
11982;SDS011;72623;51.184;7.176;2023-09-18T04:29:17;7.07;;;3.83;;
11982;SDS011;72623;51.184;7.176;2023-09-18T04:31:44;11.30;;;3.43;;
11982;SDS011;72623;51.184;7.176;2023-09-18T04:34:12;9.63;;;3.80;;
11982;SDS011;72623;51.184;7.176;2023-09-18T04:36:39;9.30;;;3.53;;
11982;SDS011;72623;51.184;7.176;2023-09-18T04:39:06;7.27;;;3.00;;
11982;SDS011;72623;51.184;7.176;2023-09-18T04:41:34;4.90;;;3.27;;
11982;SDS011;72623;51.184;7.176;2023-09-18T04:44:01;9.60;;;3.17;;
11982;SDS011;72623;51.184;7.176;2023-09-18T04:46:29;4.87;;;3.03;;
11982;SDS011;72623;51.184;7.176;2023-09-18T04:48:56;8.80;;;3.30;;
11982;SDS011;72623;51.184;7.176;2023-09-18T04:51:23;9.27;;;3.40;;
11982;SDS011;72623;51.184;7.176;2023-09-18T04:53:49;7.30;;;3.67;;
11982;SDS011;72623;51.184;7.176;2023-09-18T04:56:17;7.67;;;3.17;;
11982;SDS011;72623;51.184;7.176;2023-09-18T04:58:44;7.37;;;2.90;;
11982;SDS011;72623;51.184;7.176;2023-09-18T05:01:11;12.97;;;3.37;;
11982;SDS011;72623;51.184;7.176;2023-09-18T05:03:37;8.53;;;3.20;;
11982;SDS011;72623;51.184;7.176;2023-09-18T05:06:04;7.77;;;3.50;;
11982;SDS011;72623;51.184;7.176;2023-09-18T05:08:30;7.67;;;3.33;;
11982;SDS011;72623;51.184;7.176;2023-09-18T05:10:57;10.00;;;3.33;;
11982;SDS011;72623;51.184;7.176;2023-09-18T05:13:24;8.27;;;3.43;;
11982;SDS011;72623;51.184;7.176;2023-09-18T05:15:51;11.27;;;3.10;;
11982;SDS011;72623;51.184;7.176;2023-09-18T05:18:17;11.20;;;3.13;;
11982;SDS011;72623;51.184;7.176;2023-09-18T05:20:44;7.67;;;3.27;;
11982;SDS011;72623;51.184;7.176;2023-09-18T05:23:11;8.00;;;3.70;;
11982;SDS011;72623;51.184;7.176;2023-09-18T05:25:38;8.07;;;3.20;;
11982;SDS011;72623;51.184;7.176;2023-09-18T05:28:07;7.87;;;3.57;;
11982;SDS011;72623;51.184;7.176;2023-09-18T05:30:34;7.87;;;3.33;;
11982;SDS011;72623;51.184;7.176;2023-09-18T05:33:04;11.43;;;3.77;;
11982;SDS011;72623;51.184;7.176;2023-09-18T05:35:33;8.82;;;3.95;;
11982;SDS011;72623;51.184;7.176;2023-09-18T05:38:01;10.40;;;4.30;;
11982;SDS011;72623;51.184;7.176;2023-09-18T05:40:30;8.53;;;3.80;;
11982;SDS011;72623;51.184;7.176;2023-09-18T05:42:57;12.47;;;4.00;;
11982;SDS011;72623;51.184;7.176;2023-09-18T05:45:24;8.87;;;3.70;;
11982;SDS011;72623;51.184;7.176;2023-09-18T05:47:51;7.67;;;3.07;;
11982;SDS011;72623;51.184;7.176;2023-09-18T05:50:19;9.27;;;3.30;;
11982;SDS011;72623;51.184;7.176;2023-09-18T05:52:46;8.20;;;3.30;;
11982;SDS011;72623;51.184;7.176;2023-09-18T05:55:14;12.37;;;3.23;;
11982;SDS011;72623;51.184;7.176;2023-09-18T05:57:41;8.03;;;3.17;;
11982;SDS011;72623;51.184;7.176;2023-09-18T06:00:08;11.77;;;3.50;;
11982;SDS011;72623;51.184;7.176;2023-09-18T06:02:38;9.00;;;2.87;;
11982;SDS011;72623;51.184;7.176;2023-09-18T06:05:05;8.63;;;3.00;;
11982;SDS011;72623;51.184;7.176;2023-09-18T06:07:32;8.03;;;2.90;;
11982;SDS011;72623;51.184;7.176;2023-09-18T06:09:59;5.53;;;3.10;;
11982;SDS011;72623;51.184;7.176;2023-09-18T06:12:26;8.33;;;3.07;;
11982;SDS011;72623;51.184;7.176;2023-09-18T06:14:52;7.83;;;3.93;;
11982;SDS011;72623;51.184;7.176;2023-09-18T06:17:19;6.07;;;3.10;;
11982;SDS011;72623;51.184;7.176;2023-09-18T06:19:46;11.43;;;3.07;;
11982;SDS011;72623;51.184;7.176;2023-09-18T06:22:12;7.23;;;2.87;;
11982;SDS011;72623;51.184;7.176;2023-09-18T06:24:40;9.20;;;3.50;;
11982;SDS011;72623;51.184;7.176;2023-09-18T06:27:07;3.80;;;2.27;;
11982;SDS011;72623;51.184;7.176;2023-09-18T06:29:33;7.77;;;2.60;;
11982;SDS011;72623;51.184;7.176;2023-09-18T06:32:02;8.67;;;2.77;;
11982;SDS011;72623;51.184;7.176;2023-09-18T06:34:29;7.47;;;2.50;;
11982;SDS011;72623;51.184;7.176;2023-09-18T06:36:56;7.93;;;2.70;;
11982;SDS011;72623;51.184;7.176;2023-09-18T06:39:23;5.00;;;2.43;;
11982;SDS011;72623;51.184;7.176;2023-09-18T06:41:51;7.38;;;2.63;;
11982;SDS011;72623;51.184;7.176;2023-09-18T06:44:17;6.27;;;2.57;;
11982;SDS011;72623;51.184;7.176;2023-09-18T06:46:44;6.20;;;2.10;;
11982;SDS011;72623;51.184;7.176;2023-09-18T06:49:10;6.13;;;2.40;;
11982;SDS011;72623;51.184;7.176;2023-09-18T06:51:37;5.57;;;2.33;;
11982;SDS011;72623;51.184;7.176;2023-09-18T06:54:04;5.07;;;2.17;;
11982;SDS011;72623;51.184;7.176;2023-09-18T06:56:31;3.30;;;1.83;;
11982;SDS011;72623;51.184;7.176;2023-09-18T06:58:58;8.77;;;2.50;;
11982;SDS011;72623;51.184;7.176;2023-09-18T07:01:24;5.43;;;3.13;;
11982;SDS011;72623;51.184;7.176;2023-09-18T07:03:53;6.10;;;2.30;;
11982;SDS011;72623;51.184;7.176;2023-09-18T07:06:21;7.00;;;2.20;;
11982;SDS011;72623;51.184;7.176;2023-09-18T07:08:47;4.03;;;2.10;;
11982;SDS011;72623;51.184;7.176;2023-09-18T07:11:15;6.03;;;2.67;;
11982;SDS011;72623;51.184;7.176;2023-09-18T07:13:43;8.13;;;2.63;;
11982;SDS011;72623;51.184;7.176;2023-09-18T07:16:10;2.90;;;2.00;;
11982;SDS011;72623;51.184;7.176;2023-09-18T07:18:37;9.30;;;2.72;;
11982;SDS011;72623;51.184;7.176;2023-09-18T07:21:03;5.40;;;2.60;;
11982;SDS011;72623;51.184;7.176;2023-09-18T07:23:30;7.40;;;1.93;;
11982;SDS011;72623;51.184;7.176;2023-09-18T07:25:57;7.57;;;2.40;;
11982;SDS011;72623;51.184;7.176;2023-09-18T07:28:24;4.70;;;2.00;;
11982;SDS011;72623;51.184;7.176;2023-09-18T07:30:51;7.57;;;2.43;;
11982;SDS011;72623;51.184;7.176;2023-09-18T07:33:18;3.80;;;2.07;;
11982;SDS011;72623;51.184;7.176;2023-09-18T07:35:48;2.33;;;1.60;;
11982;SDS011;72623;51.184;7.176;2023-09-18T07:38:16;4.80;;;1.60;;
11982;SDS011;72623;51.184;7.176;2023-09-18T07:40:44;5.93;;;1.90;;
11982;SDS011;72623;51.184;7.176;2023-09-18T07:43:12;6.07;;;2.57;;
11982;SDS011;72623;51.184;7.176;2023-09-18T07:45:39;6.38;;;2.15;;
11982;SDS011;72623;51.184;7.176;2023-09-18T07:48:06;5.13;;;1.53;;
11982;SDS011;72623;51.184;7.176;2023-09-18T07:50:36;6.47;;;2.00;;
11982;SDS011;72623;51.184;7.176;2023-09-18T07:53:03;5.80;;;1.83;;
11982;SDS011;72623;51.184;7.176;2023-09-18T07:55:29;4.30;;;1.80;;
11982;SDS011;72623;51.184;7.176;2023-09-18T07:57:56;4.47;;;1.73;;
11982;SDS011;72623;51.184;7.176;2023-09-18T08:00:24;4.57;;;1.60;;
11982;SDS011;72623;51.184;7.176;2023-09-18T08:02:50;4.50;;;2.00;;
11982;SDS011;72623;51.184;7.176;2023-09-18T08:05:19;7.87;;;2.10;;
11982;SDS011;72623;51.184;7.176;2023-09-18T08:07:46;5.53;;;1.92;;
11982;SDS011;72623;51.184;7.176;2023-09-18T08:10:14;2.47;;;1.57;;
11982;SDS011;72623;51.184;7.176;2023-09-18T08:12:41;5.67;;;2.03;;
11982;SDS011;72623;51.184;7.176;2023-09-18T08:15:08;4.37;;;1.60;;
11982;SDS011;72623;51.184;7.176;2023-09-18T08:17:35;5.37;;;1.83;;
11982;SDS011;72623;51.184;7.176;2023-09-18T08:20:02;4.03;;;1.83;;
11982;SDS011;72623;51.184;7.176;2023-09-18T08:22:37;7.70;;;1.40;;
11982;SDS011;72623;51.184;7.176;2023-09-18T08:25:04;5.10;;;1.47;;
11982;SDS011;72623;51.184;7.176;2023-09-18T08:27:33;5.00;;;1.80;;
11982;SDS011;72623;51.184;7.176;2023-09-18T08:30:02;1.87;;;1.17;;
11982;SDS011;72623;51.184;7.176;2023-09-18T08:32:29;5.17;;;1.50;;
11982;SDS011;72623;51.184;7.176;2023-09-18T08:34:58;3.17;;;1.67;;
11982;SDS011;72623;51.184;7.176;2023-09-18T08:37:26;2.43;;;1.20;;
11982;SDS011;72623;51.184;7.176;2023-09-18T08:39:53;5.37;;;1.63;;
11982;SDS011;72623;51.184;7.176;2023-09-18T08:42:20;6.47;;;1.70;;
11982;SDS011;72623;51.184;7.176;2023-09-18T08:44:48;3.70;;;1.30;;
11982;SDS011;72623;51.184;7.176;2023-09-18T08:47:18;3.77;;;1.40;;
11982;SDS011;72623;51.184;7.176;2023-09-18T08:49:45;4.00;;;1.47;;
11982;SDS011;72623;51.184;7.176;2023-09-18T08:52:14;5.00;;;1.73;;
11982;SDS011;72623;51.184;7.176;2023-09-18T08:54:42;2.33;;;1.27;;
11982;SDS011;72623;51.184;7.176;2023-09-18T08:57:10;3.03;;;1.33;;
11982;SDS011;72623;51.184;7.176;2023-09-18T08:59:37;3.60;;;1.47;;
11982;SDS011;72623;51.184;7.176;2023-09-18T09:02:05;2.83;;;1.20;;
11982;SDS011;72623;51.184;7.176;2023-09-18T09:07:29;3.43;;;1.60;;
11982;SDS011;72623;51.184;7.176;2023-09-18T09:09:56;2.23;;;1.20;;
11982;SDS011;72623;51.184;7.176;2023-09-18T09:18:48;4.18;;;1.40;;
11982;SDS011;72623;51.184;7.176;2023-09-18T09:21:16;2.63;;;1.45;;
11982;SDS011;72623;51.184;7.176;2023-09-18T09:23:49;2.58;;;1.25;;
11982;SDS011;72623;51.184;7.176;2023-09-18T09:26:18;4.18;;;1.55;;
11982;SDS011;72623;51.184;7.176;2023-09-18T09:28:47;1.35;;;1.08;;
11982;SDS011;72623;51.184;7.176;2023-09-18T09:31:24;2.42;;;1.50;;
11982;SDS011;72623;51.184;7.176;2023-09-18T09:33:53;4.50;;;2.27;;
11982;SDS011;72623;51.184;7.176;2023-09-18T09:36:21;5.20;;;1.50;;
11982;SDS011;72623;51.184;7.176;2023-09-18T09:38:49;2.20;;;1.60;;
11982;SDS011;72623;51.184;7.176;2023-09-18T09:41:21;4.83;;;1.50;;
11982;SDS011;72623;51.184;7.176;2023-09-18T09:43:48;4.40;;;1.70;;
11982;SDS011;72623;51.184;7.176;2023-09-18T09:46:16;4.13;;;1.23;;
11982;SDS011;72623;51.184;7.176;2023-09-18T09:49:02;4.00;;;1.40;;
11982;SDS011;72623;51.184;7.176;2023-09-18T09:51:30;3.28;;;1.35;;
11982;SDS011;72623;51.184;7.176;2023-09-18T09:53:59;2.28;;;1.10;;
11982;SDS011;72623;51.184;7.176;2023-09-18T09:56:45;3.35;;;1.20;;
11982;SDS011;72623;51.184;7.176;2023-09-18T09:59:13;2.30;;;1.20;;
11982;SDS011;72623;51.184;7.176;2023-09-18T10:01:41;2.30;;;1.17;;
11982;SDS011;72623;51.184;7.176;2023-09-18T10:04:13;3.88;;;1.23;;
11982;SDS011;72623;51.184;7.176;2023-09-18T10:06:47;2.58;;;1.48;;
11982;SDS011;72623;51.184;7.176;2023-09-18T10:09:19;3.38;;;1.25;;
11982;SDS011;72623;51.184;7.176;2023-09-18T10:11:49;2.83;;;1.75;;
11982;SDS011;72623;51.184;7.176;2023-09-18T10:14:19;1.95;;;1.00;;
11982;SDS011;72623;51.184;7.176;2023-09-18T10:16:49;3.35;;;1.40;;
11982;SDS011;72623;51.184;7.176;2023-09-18T10:24:41;2.35;;;1.10;;
11982;SDS011;72623;51.184;7.176;2023-09-18T10:27:12;2.95;;;1.30;;
11982;SDS011;72623;51.184;7.176;2023-09-18T10:29:40;2.88;;;1.33;;
11982;SDS011;72623;51.184;7.176;2023-09-18T10:32:09;1.40;;;1.08;;
11982;SDS011;72623;51.184;7.176;2023-09-18T10:34:36;4.57;;;1.35;;
11982;SDS011;72623;51.184;7.176;2023-09-18T10:37:03;1.88;;;1.02;;
11982;SDS011;72623;51.184;7.176;2023-09-18T10:39:31;1.33;;;1.08;;
11982;SDS011;72623;51.184;7.176;2023-09-18T10:42:04;2.97;;;1.23;;
11982;SDS011;72623;51.184;7.176;2023-09-18T10:44:34;2.45;;;1.10;;
11982;SDS011;72623;51.184;7.176;2023-09-18T10:47:02;4.15;;;1.30;;
11982;SDS011;72623;51.184;7.176;2023-09-18T10:49:31;1.88;;;1.20;;
11982;SDS011;72623;51.184;7.176;2023-09-18T10:51:59;3.92;;;1.20;;
11982;SDS011;72623;51.184;7.176;2023-09-18T10:54:26;1.20;;;0.93;;
11982;SDS011;72623;51.184;7.176;2023-09-18T10:56:54;3.22;;;1.00;;
11982;SDS011;72623;51.184;7.176;2023-09-18T10:59:23;1.55;;;1.27;;
11982;SDS011;72623;51.184;7.176;2023-09-18T11:01:49;2.30;;;1.20;;
11982;SDS011;72623;51.184;7.176;2023-09-18T11:04:18;1.90;;;1.30;;
11982;SDS011;72623;51.184;7.176;2023-09-18T11:20:23;3.13;;;1.00;;
11982;SDS011;72623;51.184;7.176;2023-09-18T11:22:57;2.13;;;1.27;;
11982;SDS011;72623;51.184;7.176;2023-09-18T11:25:42;1.63;;;1.10;;
11982;SDS011;72623;51.184;7.176;2023-09-18T11:28:14;2.03;;;1.25;;
11982;SDS011;72623;51.184;7.176;2023-09-18T11:30:55;2.05;;;1.05;;
11982;SDS011;72623;51.184;7.176;2023-09-18T11:36:07;1.52;;;1.10;;
11982;SDS011;72623;51.184;7.176;2023-09-18T11:41:22;3.22;;;0.90;;
11982;SDS011;72623;51.184;7.176;2023-09-18T11:43:50;1.98;;;1.35;;
11982;SDS011;72623;51.184;7.176;2023-09-18T11:46:17;3.33;;;1.15;;
11982;SDS011;72623;51.184;7.176;2023-09-18T11:48:48;1.98;;;1.20;;
11982;SDS011;72623;51.184;7.176;2023-09-18T11:51:20;2.55;;;1.00;;
11982;SDS011;72623;51.184;7.176;2023-09-18T11:53:49;1.30;;;1.20;;
11982;SDS011;72623;51.184;7.176;2023-09-18T11:56:19;3.28;;;1.42;;
11982;SDS011;72623;51.184;7.176;2023-09-18T11:58:47;2.85;;;1.05;;
11982;SDS011;72623;51.184;7.176;2023-09-18T12:01:15;2.35;;;1.30;;
11982;SDS011;72623;51.184;7.176;2023-09-18T12:03:42;1.95;;;1.00;;
11982;SDS011;72623;51.184;7.176;2023-09-18T12:06:08;2.13;;;1.17;;
11982;SDS011;72623;51.184;7.176;2023-09-18T12:08:38;1.92;;;0.90;;
11982;SDS011;72623;51.184;7.176;2023-09-18T12:11:06;1.80;;;1.27;;
11982;SDS011;72623;51.184;7.176;2023-09-18T12:13:33;2.33;;;1.13;;
11982;SDS011;72623;51.184;7.176;2023-09-18T12:16:01;2.60;;;1.20;;
11982;SDS011;72623;51.184;7.176;2023-09-18T12:18:30;1.83;;;1.23;;
11982;SDS011;72623;51.184;7.176;2023-09-18T12:21:00;1.98;;;1.30;;
11982;SDS011;72623;51.184;7.176;2023-09-18T12:23:36;3.45;;;1.30;;
11982;SDS011;72623;51.184;7.176;2023-09-18T12:26:04;2.00;;;1.30;;
11982;SDS011;72623;51.184;7.176;2023-09-18T12:28:35;4.53;;;1.55;;
11982;SDS011;72623;51.184;7.176;2023-09-18T12:31:02;2.67;;;1.33;;
11982;SDS011;72623;51.184;7.176;2023-09-18T12:33:34;1.75;;;1.10;;
11982;SDS011;72623;51.184;7.176;2023-09-18T12:36:05;6.05;;;2.03;;
11982;SDS011;72623;51.184;7.176;2023-09-18T12:38:33;1.83;;;1.30;;
11982;SDS011;72623;51.184;7.176;2023-09-18T12:41:02;2.63;;;1.27;;
11982;SDS011;72623;51.184;7.176;2023-09-18T12:43:41;1.17;;;1.05;;
11982;SDS011;72623;51.184;7.176;2023-09-18T12:46:09;2.38;;;1.40;;
11982;SDS011;72623;51.184;7.176;2023-09-18T12:48:39;1.50;;;1.20;;
11982;SDS011;72623;51.184;7.176;2023-09-18T12:51:10;2.63;;;1.27;;
11982;SDS011;72623;51.184;7.176;2023-09-18T12:53:37;2.10;;;1.30;;
11982;SDS011;72623;51.184;7.176;2023-09-18T12:56:11;2.08;;;1.08;;
11982;SDS011;72623;51.184;7.176;2023-09-18T12:58:40;1.70;;;1.42;;
11982;SDS011;72623;51.184;7.176;2023-09-18T13:01:08;2.08;;;1.50;;
11982;SDS011;72623;51.184;7.176;2023-09-18T13:03:43;2.60;;;1.42;;
11982;SDS011;72623;51.184;7.176;2023-09-18T13:06:12;1.83;;;1.02;;
11982;SDS011;72623;51.184;7.176;2023-09-18T13:08:43;2.10;;;1.33;;
11982;SDS011;72623;51.184;7.176;2023-09-18T13:11:11;2.78;;;1.10;;
11982;SDS011;72623;51.184;7.176;2023-09-18T13:13:39;4.32;;;1.13;;
11982;SDS011;72623;51.184;7.176;2023-09-18T13:16:07;2.70;;;1.25;;
11982;SDS011;72623;51.184;7.176;2023-09-18T13:18:34;4.30;;;1.83;;
11982;SDS011;72623;51.184;7.176;2023-09-18T13:21:11;3.08;;;1.70;;
11982;SDS011;72623;51.184;7.176;2023-09-18T13:23:39;5.50;;;1.20;;
11982;SDS011;72623;51.184;7.176;2023-09-18T13:26:07;1.60;;;1.23;;
11982;SDS011;72623;51.184;7.176;2023-09-18T13:28:34;1.83;;;1.10;;
11982;SDS011;72623;51.184;7.176;2023-09-18T13:31:05;1.50;;;1.20;;
11982;SDS011;72623;51.184;7.176;2023-09-18T13:33:33;2.65;;;1.13;;
11982;SDS011;72623;51.184;7.176;2023-09-18T13:36:09;3.53;;;1.30;;
11982;SDS011;72623;51.184;7.176;2023-09-18T13:38:36;3.10;;;1.20;;
11982;SDS011;72623;51.184;7.176;2023-09-18T13:41:02;1.52;;;1.00;;
11982;SDS011;72623;51.184;7.176;2023-09-18T13:43:29;2.70;;;1.35;;
11982;SDS011;72623;51.184;7.176;2023-09-18T13:45:59;1.15;;;1.05;;
11982;SDS011;72623;51.184;7.176;2023-09-18T13:48:29;1.83;;;1.20;;
11982;SDS011;72623;51.184;7.176;2023-09-18T13:50:57;2.50;;;1.27;;
11982;SDS011;72623;51.184;7.176;2023-09-18T13:53:24;1.30;;;1.20;;
11982;SDS011;72623;51.184;7.176;2023-09-18T13:55:51;4.40;;;1.30;;
11982;SDS011;72623;51.184;7.176;2023-09-18T13:58:17;1.90;;;1.42;;
11982;SDS011;72623;51.184;7.176;2023-09-18T14:00:44;2.00;;;1.17;;
11982;SDS011;72623;51.184;7.176;2023-09-18T14:03:11;1.48;;;1.23;;
11982;SDS011;72623;51.184;7.176;2023-09-18T14:05:40;1.60;;;1.40;;
11982;SDS011;72623;51.184;7.176;2023-09-18T14:08:07;3.55;;;1.30;;
11982;SDS011;72623;51.184;7.176;2023-09-18T14:10:33;1.45;;;1.35;;
11982;SDS011;72623;51.184;7.176;2023-09-18T14:13:00;2.38;;;1.40;;
11982;SDS011;72623;51.184;7.176;2023-09-18T14:15:27;4.25;;;1.30;;
11982;SDS011;72623;51.184;7.176;2023-09-18T14:17:54;1.90;;;1.30;;
11982;SDS011;72623;51.184;7.176;2023-09-18T14:20:21;2.92;;;0.90;;
11982;SDS011;72623;51.184;7.176;2023-09-18T14:22:47;2.40;;;1.20;;
11982;SDS011;72623;51.184;7.176;2023-09-18T14:25:15;1.98;;;0.98;;
11982;SDS011;72623;51.184;7.176;2023-09-18T14:27:44;1.80;;;1.20;;
11982;SDS011;72623;51.184;7.176;2023-09-18T14:30:12;1.55;;;1.10;;
11982;SDS011;72623;51.184;7.176;2023-09-18T14:32:39;1.60;;;1.05;;
11982;SDS011;72623;51.184;7.176;2023-09-18T14:35:05;2.08;;;1.27;;
11982;SDS011;72623;51.184;7.176;2023-09-18T14:37:34;2.03;;;1.40;;
11982;SDS011;72623;51.184;7.176;2023-09-18T14:40:02;3.25;;;1.30;;
11982;SDS011;72623;51.184;7.176;2023-09-18T14:42:29;3.05;;;1.05;;
11982;SDS011;72623;51.184;7.176;2023-09-18T14:44:56;3.13;;;1.25;;
11982;SDS011;72623;51.184;7.176;2023-09-18T14:47:22;4.93;;;1.33;;
11982;SDS011;72623;51.184;7.176;2023-09-18T14:49:49;2.78;;;1.20;;
11982;SDS011;72623;51.184;7.176;2023-09-18T14:52:15;4.20;;;1.38;;
11982;SDS011;72623;51.184;7.176;2023-09-18T14:54:43;1.30;;;1.20;;
11982;SDS011;72623;51.184;7.176;2023-09-18T14:57:10;3.75;;;1.20;;
11982;SDS011;72623;51.184;7.176;2023-09-18T14:59:36;4.35;;;1.45;;
11982;SDS011;72623;51.184;7.176;2023-09-18T15:02:04;1.75;;;1.08;;
11982;SDS011;72623;51.184;7.176;2023-09-18T15:04:31;3.28;;;1.10;;
11982;SDS011;72623;51.184;7.176;2023-09-18T15:06:59;3.13;;;1.50;;
11982;SDS011;72623;51.184;7.176;2023-09-18T15:09:26;1.55;;;1.17;;
11982;SDS011;72623;51.184;7.176;2023-09-18T15:11:52;1.90;;;1.23;;
11982;SDS011;72623;51.184;7.176;2023-09-18T15:14:19;1.75;;;1.23;;
11982;SDS011;72623;51.184;7.176;2023-09-18T15:16:46;1.42;;;1.20;;
11982;SDS011;72623;51.184;7.176;2023-09-18T15:19:12;6.05;;;1.30;;
11982;SDS011;72623;51.184;7.176;2023-09-18T15:21:41;2.70;;;1.77;;
11982;SDS011;72623;51.184;7.176;2023-09-18T15:24:08;1.52;;;1.00;;
11982;SDS011;72623;51.184;7.176;2023-09-18T15:26:36;3.25;;;1.30;;
11982;SDS011;72623;51.184;7.176;2023-09-18T15:29:02;3.28;;;1.48;;
11982;SDS011;72623;51.184;7.176;2023-09-18T15:31:29;2.83;;;1.40;;